TimeCDT,TemperatureF,Dew PointF,Humidity,Sea Level PressureIn,VisibilityMPH,Wind Direction,Wind SpeedMPH,Gust SpeedMPH,PrecipitationIn,Events,Conditions,WindDirDegrees,DateUTC
12:53 AM,26.1,19.9,78,30.32,10.0,Calm,Calm,-,N/A,,Clear,0,2013-03-27 05:53:00
1:53 AM,26.1,19.9,78,30.31,10.0,ESE,4.6,-,N/A,,Clear,110,2013-03-27 06:53:00
2:53 AM,27.0,19.9,75,30.30,10.0,ESE,5.8,-,N/A,,Mostly Cloudy,110,2013-03-27 07:53:00
3:53 AM,28.0,19.9,72,30.29,10.0,ESE,5.8,-,N/A,,Mostly Cloudy,120,2013-03-27 08:53:00
4:53 AM,28.0,19.9,72,30.28,10.0,ESE,5.8,-,N/A,,Overcast,110,2013-03-27 09:53:00
5:53 AM,28.9,21.9,75,30.29,10.0,SE,8.1,-,N/A,,Overcast,140,2013-03-27 10:53:00
6:53 AM,30.0,21.9,72,30.28,10.0,SE,8.1,-,N/A,,Overcast,140,2013-03-27 11:53:00
7:53 AM,30.9,23.0,72,30.28,10.0,ESE,9.2,-,N/A,,Overcast,120,2013-03-27 12:53:00
8:53 AM,32.0,24.1,73,30.28,10.0,ESE,10.4,-,N/A,,Scattered Clouds,110,2013-03-27 13:53:00
9:53 AM,35.1,26.1,70,30.27,10.0,ESE,9.2,-,N/A,,Scattered Clouds,120,2013-03-27 14:53:00
10:53 AM,39.9,26.1,58,30.26,10.0,SE,12.7,-,N/A,,Mostly Cloudy,130,2013-03-27 15:53:00
11:53 AM,43.0,27.0,53,30.26,10.0,SE,11.5,-,N/A,,Clear,130,2013-03-27 16:53:00
12:53 PM,44.1,28.0,53,30.23,10.0,SE,13.8,21.9,N/A,,Scattered Clouds,130,2013-03-27 17:53:00
1:53 PM,46.9,28.9,50,30.22,10.0,SSE,13.8,20.7,N/A,,Partly Cloudy,150,2013-03-27 18:53:00
2:53 PM,48.0,28.9,48,30.20,10.0,SE,13.8,-,N/A,,Clear,130,2013-03-27 19:53:00
3:53 PM,48.9,30.0,48,30.19,10.0,SE,15.0,-,N/A,,Clear,130,2013-03-27 20:53:00
4:53 PM,50.0,32.0,50,30.18,10.0,SE,12.7,-,N/A,,Clear,140,2013-03-27 21:53:00
5:53 PM,48.9,32.0,52,30.19,10.0,ESE,10.4,-,N/A,,Clear,110,2013-03-27 22:53:00
6:53 PM,48.9,30.9,50,30.19,10.0,East,10.4,-,N/A,,Clear,80,2013-03-27 23:53:00
7:53 PM,45.0,32.0,60,30.20,10.0,East,8.1,-,N/A,,Clear,90,2013-03-28 00:53:00
8:53 PM,43.0,32.0,65,30.21,10.0,East,5.8,-,N/A,,Clear,80,2013-03-28 01:53:00
9:53 PM,42.1,32.0,67,30.22,10.0,East,6.9,-,N/A,,Clear,90,2013-03-28 02:53:00
10:53 PM,42.1,30.9,65,30.23,10.0,East,6.9,-,N/A,,Clear,90,2013-03-28 03:53:00
11:53 PM,39.9,30.0,68,30.22,10.0,East,5.8,-,N/A,,Clear,100,2013-03-28 04:53:00